Time;durP1;ratioP1;P1;durP2;ratioP2;P2;SDS_P1;SDS_P2;PMS_P1;PMS_P2;Temp;Humidity;BMP_temperature;BMP_pressure;BME280_temperature;BME280_humidity;BME280_pressure;Samples;Min_cycle;Max_cycle;Signal;HPM_P1;HPM_P2
2022/09/17 00:00:47;;;;;;;;;;;;;;;71.76;0.00;100559.66;5104971;27;20274;-67
2022/09/17 00:03:14;;;;;;;;;;;;;;;72.44;0.00;100567.16;5103880;28;19916;-67
2022/09/17 00:05:40;;;;;;;;;;;;;;;72.83;0.00;100557.47;5086602;28;20007;-67
2022/09/17 00:08:08;;;;;;;;;;;;;;;74.18;0.00;100566.44;5127814;27;19923;-66
2022/09/17 00:10:40;;;;;;;;;;;;;;;73.81;0.00;100553.91;5084896;27;20024;-67
2022/09/17 00:13:07;;;;;;;;;;;;;;;69.61;0.00;100550.47;5122570;27;20389;-67
2022/09/17 00:15:39;;;;;;;;;;;;;;;67.45;0.00;100542.25;5102710;28;19915;-68
2022/09/17 00:18:05;;;;;;;;;;;;;;;70.85;0.00;100549.06;5099889;28;19920;-67
2022/09/17 00:20:31;;;;;;;;;;;;;;;72.37;0.00;100549.06;5129858;27;19923;-68
2022/09/17 00:22:57;;;;;;;;;;;;;;;70.22;0.00;100541.28;5108116;27;19915;-67
2022/09/17 00:25:24;;;;;;;;;;;;;;;69.60;0.00;100546.72;5110745;27;19920;-68
2022/09/17 00:27:50;;;;;;;;;;;;;;;67.65;0.00;100536.41;5113317;27;19965;-68
2022/09/17 00:30:16;;;;;;;;;;;;;;;68.24;0.00;100541.78;5102981;28;19923;-68
2022/09/17 00:32:43;;;;;;;;;;;;;;;67.36;0.00;100529.28;5106497;28;19943;-69
2022/09/17 00:35:09;;;;;;;;;;;;;;;67.59;0.00;100527.25;5108757;28;20007;-66
2022/09/17 00:37:35;;;;;;;;;;;;;;;67.24;0.00;100522.81;5105053;28;20382;-66
2022/09/17 00:40:01;;;;;;;;;;;;;;;64.68;0.00;100528.81;5104679;28;20421;-67
2022/09/17 00:42:27;;;;;;;;;;;;;;;67.66;0.00;100526.03;5103723;28;20007;-68
2022/09/17 00:44:55;;;;;;;;;;;;;;;69.29;0.00;100524.09;5103249;28;19989;-68
2022/09/17 00:47:24;;;;;;;;;;;;;;;68.40;0.00;100524.56;5101228;28;20366;-68
2022/09/17 00:49:58;;;;;;;;;;;;;;;69.38;0.00;100528.09;5102224;28;20347;-68
2022/09/17 00:52:26;;;;;;;;;;;;;;;68.65;0.00;100522.53;5103219;28;20358;-69
2022/09/17 00:54:59;;;;;;;;;;;;;;;65.16;0.00;100523.19;5102493;28;19920;-68
2022/09/17 00:57:25;;;;;;;;;;;;;;;65.97;0.00;100515.47;5103530;28;20018;-67
2022/09/17 00:59:52;;;;;;;;;;;;;;;66.00;0.00;100520.06;5106936;28;19924;-65
2022/09/17 01:02:19;;;;;;;;;;;;;;;65.55;0.00;100523.75;5107874;28;19928;-68
2022/09/17 01:04:45;;;;;;;;;;;;;;;66.36;0.00;100521.03;5108350;28;19920;-69
2022/09/17 01:07:21;;;;;;;;;;;;;;;66.33;0.00;100521.63;5108887;28;19919;-69
2022/09/17 01:09:47;;;;;;;;;;;;;;;63.89;0.00;100521.38;5104543;28;19920;-67
2022/09/17 01:12:24;;;;;;;;;;;;;;;63.29;0.00;100522.25;5101272;28;19935;-66
2022/09/17 01:14:58;;;;;;;;;;;;;;;61.85;0.89;100513.88;5101625;27;20408;-68
2022/09/17 01:17:44;;;;;;;;;;;;;;;59.82;0.89;100517.88;5109385;28;19973;-68
2022/09/17 01:20:24;;;;;;;;;;;;;;;58.73;1.76;100507.97;5108109;28;19920;-66
2022/09/17 01:23:09;;;;;;;;;;;;;;;58.24;2.36;100515.72;5107890;28;19920;-68
2022/09/17 01:25:44;;;;;;;;;;;;;;;55.16;3.59;100514.06;5106942;28;20028;-67
2022/09/17 01:28:10;;;;;;;;;;;;;;;55.67;3.57;100512.25;5106870;28;19934;-68
2022/09/17 01:30:39;;;;;;;;;;;;;;;55.70;4.74;100514.75;5106989;28;19998;-67
2022/09/17 01:33:29;;;;;;;;;;;;;;;54.93;4.09;100510.38;5104794;28;19935;-67
2022/09/17 01:36:18;;;;;;;;;;;;;;;54.26;4.18;100500.97;5096073;27;19928;-70
2022/09/17 01:38:48;;;;;;;;;;;;;;;54.23;5.11;100507.94;5102716;27;19931;-69
2022/09/17 01:41:20;;;;;;;;;;;;;;;54.48;4.86;100506.06;5107540;28;19924;-66
2022/09/17 01:43:54;;;;;;;;;;;;;;;54.14;6.03;100511.41;5110621;28;19927;-66
2022/09/17 01:46:20;;;;;;;;;;;;;;;53.49;5.48;100504.84;5089679;27;19928;-67
2022/09/17 01:48:48;;;;;;;;;;;;;;;53.80;4.88;100505.81;5106115;28;20285;-66
2022/09/17 01:51:21;;;;;;;;;;;;;;;53.64;5.38;100499.88;5110868;27;19920;-65
2022/09/17 01:54:03;;;;;;;;;;;;;;;53.02;5.50;100509.56;5108025;27;20022;-66
2022/09/17 01:56:50;;;;;;;;;;;;;;;53.37;6.28;100516.81;5103888;28;19923;-65
2022/09/17 01:59:22;;;;;;;;;;;;;;;53.47;5.59;100507.56;5101563;28;19928;-65
2022/09/17 02:01:50;;;;;;;;;;;;;;;53.19;6.05;100514.13;5105540;28;20478;-65
2022/09/17 02:04:20;;;;;;;;;;;;;;;53.12;5.80;100516.41;5107124;27;20391;-69
2022/09/17 02:06:51;;;;;;;;;;;;;;;52.91;5.90;100520.66;5100330;28;20475;-66
2022/09/17 02:09:21;;;;;;;;;;;;;;;52.93;6.26;100512.94;5102812;28;19923;-69
2022/09/17 02:11:54;;;;;;;;;;;;;;;52.91;6.35;100520.66;5102598;28;19993;-66
2022/09/17 02:14:41;;;;;;;;;;;;;;;52.80;6.00;100524.66;5110712;28;19931;-69
2022/09/17 02:17:15;;;;;;;;;;;;;;;52.57;6.91;100520.72;5107559;28;19927;-68
2022/09/17 02:19:42;;;;;;;;;;;;;;;52.57;6.82;100521.47;5107635;28;19980;-69
2022/09/17 02:22:35;;;;;;;;;;;;;;;52.45;6.89;100514.41;5107030;28;19916;-67
2022/09/17 02:25:16;;;;;;;;;;;;;;;52.35;6.50;100522.00;5107003;28;19947;-71
2022/09/17 02:27:54;;;;;;;;;;;;;;;52.23;6.37;100516.47;5109306;28;20426;-70
2022/09/17 02:30:21;;;;;;;;;;;;;;;52.00;6.29;100521.19;5103245;28;19919;-70
2022/09/17 02:32:47;;;;;;;;;;;;;;;51.92;6.19;100517.44;5107450;27;20085;-71
2022/09/17 02:35:14;;;;;;;;;;;;;;;51.72;6.31;100523.94;5107373;27;19924;-69
2022/09/17 02:37:41;;;;;;;;;;;;;;;51.60;6.20;100529.91;5106785;28;19924;-70
2022/09/17 02:40:08;;;;;;;;;;;;;;;51.70;6.37;100532.34;5104759;27;19920;-69
2022/09/17 02:42:52;;;;;;;;;;;;;;;51.53;6.53;100532.69;5102251;28;19923;-70
2022/09/17 02:45:37;;;;;;;;;;;;;;;51.35;5.82;100537.22;5106195;28;20394;-69
2022/09/17 02:48:04;;;;;;;;;;;;;;;51.29;7.05;100551.06;5110842;28;19920;-70
2022/09/17 02:50:48;;;;;;;;;;;;;;;51.22;6.83;100534.34;5097189;28;19920;-66
2022/09/17 02:53:31;;;;;;;;;;;;;;;51.20;6.85;100537.00;5098856;28;19919;-70
2022/09/17 02:55:57;;;;;;;;;;;;;;;51.16;6.33;100542.34;5092212;28;20382;-70
2022/09/17 02:58:27;;;;;;;;;;;;;;;51.06;6.54;100544.91;5108479;28;20389;-67
2022/09/17 03:00:56;;;;;;;;;;;;;;;50.98;6.61;100546.84;5106969;28;20381;-68
2022/09/17 03:03:25;;;;;;;;;;;;;;;50.94;6.11;100546.38;5109829;28;20282;-69
2022/09/17 03:05:53;;;;;;;;;;;;;;;50.90;6.77;100549.63;5086868;28;20409;-69
2022/09/17 03:08:26;;;;;;;;;;;;;;;50.96;7.53;100555.28;5094361;28;19963;-69
2022/09/17 03:10:53;;;;;;;;;;;;;;;51.04;7.78;100565.72;5092011;28;20474;-68
2022/09/17 03:13:20;;;;;;;;;;;;;;;50.96;8.82;100558.19;5112664;28;19973;-69
2022/09/17 03:15:47;;;;;;;;;;;;;;;50.85;8.13;100564.97;5081896;28;19920;-68
2022/09/17 03:18:13;;;;;;;;;;;;;;;50.91;8.27;100562.75;5126072;28;19919;-68
2022/09/17 03:20:39;;;;;;;;;;;;;;;50.96;8.48;100570.56;5096260;28;20416;-69
2022/09/17 03:23:05;;;;;;;;;;;;;;;50.95;7.68;100568.22;5103673;28;19962;-68
2022/09/17 03:25:32;;;;;;;;;;;;;;;50.82;8.07;100571.88;5101561;28;19935;-69
2022/09/17 03:27:58;;;;;;;;;;;;;;;50.78;8.79;100571.38;5078667;28;19912;-69
2022/09/17 03:30:24;;;;;;;;;;;;;;;50.71;8.47;100572.03;5124763;28;19919;-69
2022/09/17 03:32:50;;;;;;;;;;;;;;;50.68;7.93;100567.31;5101090;28;19916;-69
2022/09/17 03:35:17;;;;;;;;;;;;;;;50.55;7.35;100582.50;5113445;28;19927;-69
2022/09/17 03:37:43;;;;;;;;;;;;;;;50.40;7.76;100585.88;5116970;28;19977;-68
2022/09/17 03:40:09;;;;;;;;;;;;;;;50.27;7.99;100579.97;5083235;28;19920;-68
2022/09/17 03:42:36;;;;;;;;;;;;;;;50.41;7.96;100592.44;5126319;28;19916;-68
2022/09/17 03:45:02;;;;;;;;;;;;;;;50.40;8.13;100577.19;5105974;28;19927;-68
2022/09/17 03:47:28;;;;;;;;;;;;;;;50.29;8.72;100583.13;5111578;28;19923;-69
2022/09/17 03:49:54;;;;;;;;;;;;;;;50.16;8.84;100594.59;5120653;28;19967;-68
2022/09/17 03:52:21;;;;;;;;;;;;;;;50.00;8.98;100589.81;5099093;28;20359;-69
2022/09/17 03:54:47;;;;;;;;;;;;;;;49.95;9.03;100587.75;5124050;28;19920;-69
2022/09/17 03:57:14;;;;;;;;;;;;;;;50.18;9.21;100591.94;5086326;28;20366;-68
2022/09/17 03:59:40;;;;;;;;;;;;;;;50.28;9.26;100593.13;5116518;28;20570;-68
2022/09/17 04:02:07;;;;;;;;;;;;;;;50.38;8.88;100594.31;5101297;28;20346;-69
2022/09/17 04:04:33;;;;;;;;;;;;;;;50.51;9.54;100598.63;5117667;28;19920;-69
2022/09/17 04:06:59;;;;;;;;;;;;;;;50.52;9.60;100594.41;5104716;28;19915;-69
2022/09/17 04:09:25;;;;;;;;;;;;;;;50.54;9.92;100598.31;5112680;28;19924;-68
2022/09/17 04:11:51;;;;;;;;;;;;;;;50.47;10.36;100601.84;5119529;28;20132;-70
2022/09/17 04:14:18;;;;;;;;;;;;;;;50.48;10.24;100601.28;5097392;28;19923;-71
2022/09/17 04:16:44;;;;;;;;;;;;;;;50.49;10.71;100608.63;5065053;28;20859;-70
2022/09/17 04:19:11;;;;;;;;;;;;;;;50.53;11.05;100607.53;5082707;28;19928;-67
2022/09/17 04:21:38;;;;;;;;;;;;;;;50.66;10.96;100604.72;5083604;28;19928;-68
2022/09/17 04:24:05;;;;;;;;;;;;;;;50.65;10.59;100608.94;5083526;28;19920;-70
2022/09/17 04:26:31;;;;;;;;;;;;;;;50.51;11.22;100616.00;5083752;28;19919;-69
2022/09/17 04:28:58;;;;;;;;;;;;;;;49.50;11.64;100609.22;5082239;28;19954;-70
2022/09/17 04:31:25;;;;;;;;;;;;;;;50.24;11.67;100609.22;5082371;28;19928;-70
2022/09/17 04:33:52;;;;;;;;;;;;;;;49.93;9.73;100604.88;5087767;28;19924;-70
2022/09/17 04:36:18;;;;;;;;;;;;;;;49.93;9.27;100607.75;5090080;28;19924;-69
2022/09/17 04:38:47;;;;;;;;;;;;;;;50.17;8.92;100610.63;5089307;28;19928;-68
2022/09/17 04:41:14;;;;;;;;;;;;;;;49.79;8.93;100613.44;5086483;28;20054;-70
2022/09/17 04:43:40;;;;;;;;;;;;;;;49.77;9.12;100610.28;5091211;28;20626;-69
2022/09/17 04:46:06;;;;;;;;;;;;;;;50.14;9.17;100605.94;5089093;28;19923;-71
2022/09/17 04:48:33;;;;;;;;;;;;;;;50.10;8.87;100606.25;5090257;28;20341;-69
2022/09/17 04:50:59;;;;;;;;;;;;;;;49.47;8.64;100600.88;5081884;28;20388;-69
2022/09/17 04:53:26;;;;;;;;;;;;;;;48.73;8.30;100609.31;5086586;28;19935;-69
2022/09/17 04:55:52;;;;;;;;;;;;;;;48.98;8.42;100613.06;5088948;28;19924;-69
2022/09/17 04:58:18;;;;;;;;;;;;;;;48.54;8.70;100602.56;5090852;28;20375;-69
2022/09/17 05:00:44;;;;;;;;;;;;;;;48.55;8.10;100614.91;5087575;28;19923;-70
2022/09/17 05:03:11;;;;;;;;;;;;;;;48.12;8.87;100609.56;5089220;28;20015;-69
2022/09/17 05:05:37;;;;;;;;;;;;;;;48.78;8.19;100609.78;5086249;28;19920;-69
2022/09/17 05:08:03;;;;;;;;;;;;;;;48.90;7.93;100614.94;5092098;28;19920;-70
2022/09/17 05:10:29;;;;;;;;;;;;;;;49.02;7.86;100618.56;5088331;28;19916;-70
2022/09/17 05:12:56;;;;;;;;;;;;;;;49.14;8.51;100616.38;5091314;28;19920;-70
2022/09/17 05:15:23;;;;;;;;;;;;;;;49.29;7.95;100613.91;5089757;28;19920;-70
2022/09/17 05:17:50;;;;;;;;;;;;;;;49.19;8.10;100604.75;5100917;28;19924;-69
2022/09/17 05:20:16;;;;;;;;;;;;;;;49.12;8.29;100616.91;5105933;28;19926;-70
2022/09/17 05:22:51;;;;;;;;;;;;;;;49.07;8.15;100614.06;5111808;28;19924;-69
2022/09/17 05:25:19;;;;;;;;;;;;;;;48.88;8.76;100608.94;5088388;28;19922;-70
2022/09/17 05:27:45;;;;;;;;;;;;;;;48.92;8.90;100605.75;5100588;28;19927;-69
2022/09/17 05:30:12;;;;;;;;;;;;;;;48.59;8.42;100604.66;5109932;27;20310;-71
2022/09/17 05:32:39;;;;;;;;;;;;;;;48.61;8.75;100604.91;5112706;28;19978;-70
2022/09/17 05:35:06;;;;;;;;;;;;;;;48.68;8.71;100595.69;5107230;28;20433;-71
2022/09/17 05:37:33;;;;;;;;;;;;;;;48.58;8.54;100600.22;5085923;28;20397;-69
2022/09/17 05:39:59;;;;;;;;;;;;;;;48.27;8.62;100595.63;5107486;28;19927;-69
2022/09/17 05:42:25;;;;;;;;;;;;;;;48.42;8.93;100596.09;5109243;28;20398;-70
2022/09/17 05:44:51;;;;;;;;;;;;;;;48.51;8.63;100597.88;5109209;28;19943;-71
2022/09/17 05:47:18;;;;;;;;;;;;;;;48.20;8.28;100601.16;5100797;28;20005;-71
2022/09/17 05:49:44;;;;;;;;;;;;;;;48.27;9.24;100594.84;5104730;28;20156;-68
2022/09/17 05:52:10;;;;;;;;;;;;;;;48.09;8.54;100594.13;5102850;28;19924;-68
2022/09/17 05:54:36;;;;;;;;;;;;;;;48.14;8.53;100587.56;5106488;28;19924;-69
2022/09/17 05:57:03;;;;;;;;;;;;;;;47.95;8.97;100595.25;5090782;28;19940;-70
2022/09/17 05:59:29;;;;;;;;;;;;;;;47.70;9.37;100585.59;5109517;28;19927;-70
2022/09/17 06:01:55;;;;;;;;;;;;;;;47.85;9.75;100596.81;5105759;28;19927;-70
2022/09/17 06:04:22;;;;;;;;;;;;;;;47.98;9.89;100591.28;5085743;28;20012;-72
2022/09/17 06:06:48;;;;;;;;;;;;;;;47.92;9.76;100586.84;5106972;28;20010;-69
2022/09/17 06:09:16;;;;;;;;;;;;;;;47.95;9.64;100582.94;5099706;28;19920;-70
2022/09/17 06:11:42;;;;;;;;;;;;;;;47.86;9.17;100595.53;5099079;28;19931;-70
2022/09/17 06:14:08;;;;;;;;;;;;;;;47.85;9.08;100585.28;5101173;28;19927;-68
2022/09/17 06:16:35;;;;;;;;;;;;;;;47.76;9.02;100592.13;5101875;28;19947;-70
2022/09/17 06:19:02;;;;;;;;;;;;;;;47.94;9.08;100585.03;5102148;28;20378;-70
2022/09/17 06:21:29;;;;;;;;;;;;;;;47.99;10.10;100587.09;5097822;28;19971;-71
2022/09/17 06:23:55;;;;;;;;;;;;;;;47.87;9.83;100579.81;5098285;27;19926;-71
2022/09/17 06:26:21;;;;;;;;;;;;;;;47.74;9.99;100576.66;5105940;28;19919;-69
2022/09/17 06:28:47;;;;;;;;;;;;;;;47.59;10.13;100576.19;5105875;28;19919;-70
2022/09/17 06:31:14;;;;;;;;;;;;;;;47.50;9.84;100574.38;5110003;27;20383;-71
2022/09/17 06:33:40;;;;;;;;;;;;;;;47.42;9.64;100574.09;5104668;27;20006;-70
2022/09/17 06:36:08;;;;;;;;;;;;;;;47.46;10.05;100573.84;5108556;28;20003;-69
2022/09/17 06:38:35;;;;;;;;;;;;;;;47.38;9.75;100564.94;5094335;28;20020;-70
2022/09/17 06:41:02;;;;;;;;;;;;;;;47.32;9.92;100572.03;5093806;28;19915;-72
2022/09/17 06:43:28;;;;;;;;;;;;;;;47.17;10.12;100569.41;5101924;27;20006;-71
2022/09/17 06:45:55;;;;;;;;;;;;;;;47.10;10.09;100569.91;5103566;28;19943;-71
2022/09/17 06:48:22;;;;;;;;;;;;;;;47.12;10.46;100564.41;5102907;27;20005;-69
2022/09/17 06:50:53;;;;;;;;;;;;;;;47.26;10.30;100577.78;5105489;28;19920;-71
2022/09/17 06:53:22;;;;;;;;;;;;;;;47.15;10.84;100578.56;5104792;28;19926;-72
2022/09/17 06:55:49;;;;;;;;;;;;;;;47.14;10.97;100577.00;5103293;28;19927;-71
2022/09/17 06:58:16;;;;;;;;;;;;;;;47.01;11.10;100576.69;5109703;28;20370;-70
2022/09/17 07:00:42;;;;;;;;;;;;;;;47.08;10.84;100573.31;5104975;28;19915;-69
2022/09/17 07:03:09;;;;;;;;;;;;;;;47.06;10.78;100575.94;5107336;28;19927;-71
2022/09/17 07:05:35;;;;;;;;;;;;;;;47.11;10.32;100571.50;5101567;28;19927;-68
2022/09/17 07:08:02;;;;;;;;;;;;;;;47.05;10.20;100567.84;5111796;28;19920;-70
2022/09/17 07:10:28;;;;;;;;;;;;;;;46.56;10.67;100579.53;5095505;28;20007;-70
2022/09/17 07:12:55;;;;;;;;;;;;;;;45.95;11.01;100564.88;5105786;28;19920;-70
2022/09/17 07:15:21;;;;;;;;;;;;;;;46.63;10.60;100572.47;5100418;28;20482;-69
2022/09/17 07:17:48;;;;;;;;;;;;;;;46.93;10.36;100559.19;5099024;28;19924;-70
2022/09/17 07:20:14;;;;;;;;;;;;;;;45.62;11.09;100566.25;5108832;28;20032;-70
2022/09/17 07:22:40;;;;;;;;;;;;;;;45.39;11.26;100567.38;5095492;28;19927;-69
2022/09/17 07:25:07;;;;;;;;;;;;;;;45.79;10.82;100560.63;5104668;28;19920;-70
2022/09/17 07:27:33;;;;;;;;;;;;;;;46.62;9.81;100560.16;5114418;28;19931;-68
2022/09/17 07:29:59;;;;;;;;;;;;;;;46.38;10.25;100562.72;5103589;28;20013;-70
2022/09/17 07:32:27;;;;;;;;;;;;;;;46.33;9.60;100561.41;5119693;28;19919;-70
2022/09/17 07:34:54;;;;;;;;;;;;;;;45.95;9.67;100559.13;5105250;28;19926;-68
2022/09/17 07:37:20;;;;;;;;;;;;;;;46.81;9.50;100551.84;5109758;28;20018;-69
2022/09/17 07:39:46;;;;;;;;;;;;;;;47.04;9.73;100557.59;5106031;28;19916;-67
2022/09/17 07:42:12;;;;;;;;;;;;;;;47.05;9.48;100562.06;5122800;28;20392;-69
2022/09/17 07:44:39;;;;;;;;;;;;;;;47.09;9.79;100551.09;5102143;28;20477;-71
2022/09/17 07:47:05;;;;;;;;;;;;;;;47.10;9.44;100547.69;5101731;28;19920;-67
2022/09/17 07:49:32;;;;;;;;;;;;;;;46.99;9.54;100550.53;5093051;28;19926;-66
2022/09/17 07:52:03;;;;;;;;;;;;;;;46.95;10.11;100547.16;5098118;28;19920;-67
2022/09/17 07:54:32;;;;;;;;;;;;;;;46.91;10.09;100553.19;5095711;28;19930;-69
2022/09/17 07:56:59;;;;;;;;;;;;;;;46.86;9.67;100556.03;5089224;28;19969;-68
2022/09/17 07:59:25;;;;;;;;;;;;;;;46.79;10.28;100540.09;5108776;27;20290;-70
2022/09/17 08:01:51;;;;;;;;;;;;;;;46.74;10.44;100540.06;5086912;28;20011;-68
2022/09/17 08:04:18;;;;;;;;;;;;;;;46.65;10.15;100546.84;5106691;27;19973;-69
2022/09/17 08:06:47;;;;;;;;;;;;;;;46.62;10.19;100542.13;5106178;27;19970;-70
2022/09/17 08:09:14;;;;;;;;;;;;;;;46.61;10.62;100529.06;5106695;27;20764;-68
2022/09/17 08:11:40;;;;;;;;;;;;;;;46.50;9.99;100540.53;5104907;28;19919;-69
2022/09/17 08:14:09;;;;;;;;;;;;;;;46.54;10.69;100536.13;5103648;28;19929;-69
2022/09/17 08:16:35;;;;;;;;;;;;;;;46.51;10.34;100536.38;5108151;28;19920;-66
2022/09/17 08:19:02;;;;;;;;;;;;;;;46.52;10.88;100532.19;5087481;28;19927;-70
2022/09/17 08:21:28;;;;;;;;;;;;;;;46.23;10.12;100539.16;5111451;28;19923;-71
2022/09/17 08:23:54;;;;;;;;;;;;;;;46.26;11.00;100540.97;5098801;28;20282;-69
2022/09/17 08:26:21;;;;;;;;;;;;;;;46.22;10.33;100538.38;5087774;28;19954;-69
2022/09/17 08:28:53;;;;;;;;;;;;;;;46.03;11.14;100529.41;5089255;28;19966;-69
2022/09/17 08:31:20;;;;;;;;;;;;;;;46.19;10.53;100530.00;5111465;28;20031;-71
2022/09/17 08:33:47;;;;;;;;;;;;;;;46.41;10.44;100524.31;5088931;28;19984;-69
2022/09/17 08:36:14;;;;;;;;;;;;;;;46.40;10.19;100519.09;5105579;27;19924;-71
2022/09/17 08:38:40;;;;;;;;;;;;;;;46.40;10.30;100521.97;5102918;28;19920;-68
2022/09/17 08:41:10;;;;;;;;;;;;;;;46.32;10.07;100525.31;5099571;28;19963;-68
2022/09/17 08:43:56;;;;;;;;;;;;;;;46.43;10.51;100515.97;5100244;28;19943;-67
2022/09/17 08:46:23;;;;;;;;;;;;;;;46.30;9.90;100513.53;5050648;28;19920;-70
2022/09/17 08:49:04;;;;;;;;;;;;;;;46.26;10.00;100515.91;5087400;28;19924;-68
2022/09/17 08:51:38;;;;;;;;;;;;;;;46.15;10.85;100520.84;5104451;28;19943;-69
2022/09/17 08:54:11;;;;;;;;;;;;;;;46.04;10.78;100515.84;5106396;28;19924;-69
2022/09/17 08:56:38;;;;;;;;;;;;;;;45.49;10.45;100517.09;5094609;28;19951;-69
2022/09/17 08:59:10;;;;;;;;;;;;;;;45.44;10.46;100512.13;5107294;28;20370;-71
2022/09/17 09:01:40;;;;;;;;;;;;;;;44.75;10.75;100511.28;5113348;28;19915;-70
2022/09/17 09:04:07;;;;;;;;;;;;;;;44.47;11.29;100510.97;5091301;28;19927;-71
2022/09/17 09:06:54;;;;;;;;;;;;;;;44.75;10.76;100508.41;5093805;28;19928;-70
2022/09/17 09:09:24;;;;;;;;;;;;;;;44.84;10.73;100511.09;5106475;28;19919;-71
2022/09/17 09:11:56;;;;;;;;;;;;;;;44.72;10.69;100504.50;5092430;28;20469;-67
2022/09/17 09:14:39;;;;;;;;;;;;;;;45.35;10.77;100506.56;5094498;28;20304;-72
2022/09/17 09:17:08;;;;;;;;;;;;;;;45.24;10.25;100503.59;5106727;28;19927;-68
2022/09/17 09:19:43;;;;;;;;;;;;;;;45.89;10.20;100507.38;5106503;28;19931;-68
2022/09/17 09:22:28;;;;;;;;;;;;;;;45.45;10.15;100510.81;5107911;28;20346;-70
2022/09/17 09:25:25;;;;;;;;;;;;;;;45.58;10.73;100505.38;5103280;28;19956;-69
2022/09/17 09:28:01;;;;;;;;;;;;;;;45.77;10.50;100509.41;5102927;28;19927;-69
2022/09/17 09:30:32;;;;;;;;;;;;;;;45.46;10.83;100509.50;5107626;28;19938;-68
2022/09/17 09:33:04;;;;;;;;;;;;;;;46.01;10.50;100516.84;5105385;28;19920;-70
2022/09/17 09:35:32;;;;;;;;;;;;;;;46.07;9.82;100506.97;5104363;28;19941;-68
2022/09/17 09:38:02;;;;;;;;;;;;;;;46.01;10.08;100511.09;5106670;28;19916;-69
2022/09/17 09:40:41;;;;;;;;;;;;;;;45.68;10.23;100517.47;5107738;28;19935;-68
2022/09/17 09:43:19;;;;;;;;;;;;;;;45.84;10.39;100513.91;5108282;28;19919;-69
2022/09/17 09:46:04;;;;;;;;;;;;;;;45.82;9.87;100521.47;5108132;28;19980;-69
2022/09/17 09:49:00;;;;;;;;;;;;;;;45.89;10.40;100515.22;5109158;27;19924;-69
2022/09/17 09:51:38;;;;;;;;;;;;;;;45.78;10.13;100516.72;5035762;28;19979;-69
2022/09/17 09:54:11;;;;;;;;;;;;;;;45.77;10.23;100503.69;5093188;28;20339;-68
2022/09/17 09:56:57;;;;;;;;;;;;;;;45.74;10.50;100512.53;5109828;28;20277;-67
2022/09/17 09:59:24;;;;;;;;;;;;;;;45.70;11.25;100509.91;5104608;28;19924;-66
2022/09/17 10:01:51;;;;;;;;;;;;;;;45.61;11.49;100515.88;5107246;28;19912;-68
2022/09/17 10:04:19;;;;;;;;;;;;;;;45.61;11.31;100515.88;5113515;28;19920;-69
2022/09/17 10:06:47;;;;;;;;;;;;;;;45.54;11.07;100513.47;5102468;27;20414;-69
2022/09/17 10:09:16;;;;;;;;;;;;;;;45.51;10.86;100514.50;5117425;27;19937;-69
2022/09/17 10:11:43;;;;;;;;;;;;;;;45.42;11.14;100517.56;5118380;27;19923;-68
2022/09/17 10:14:23;;;;;;;;;;;;;;;45.42;11.10;100512.59;5102108;27;20363;-68
2022/09/17 10:16:50;;;;;;;;;;;;;;;45.26;10.63;100512.53;5105620;28;19971;-68
2022/09/17 10:19:24;;;;;;;;;;;;;;;45.25;10.87;100508.03;5110324;28;19973;-66
2022/09/17 10:21:51;;;;;;;;;;;;;;;45.29;10.95;100522.97;5105019;28;19915;-69
2022/09/17 10:24:25;;;;;;;;;;;;;;;45.32;11.56;100516.22;5095199;28;19916;-69
2022/09/17 10:27:02;;;;;;;;;;;;;;;45.38;10.83;100522.75;5105113;28;20143;-68
2022/09/17 10:29:28;;;;;;;;;;;;;;;45.27;10.64;100516.97;5101760;28;19931;-68
2022/09/17 10:31:56;;;;;;;;;;;;;;;45.31;11.07;100517.50;5100758;28;19924;-69
2022/09/17 10:34:31;;;;;;;;;;;;;;;45.29;11.18;100520.88;5110436;28;19919;-69
2022/09/17 10:36:58;;;;;;;;;;;;;;;45.34;10.78;100516.47;5098909;28;19920;-67
2022/09/17 10:39:24;;;;;;;;;;;;;;;45.25;11.38;100525.25;5102904;28;19962;-68
2022/09/17 10:41:54;;;;;;;;;;;;;;;45.27;11.42;100525.56;5106501;28;20285;-69
2022/09/17 10:44:22;;;;;;;;;;;;;;;45.29;11.42;100520.09;5096543;28;19920;-67
2022/09/17 10:46:49;;;;;;;;;;;;;;;45.28;11.53;100518.53;5108489;28;19920;-68
2022/09/17 10:49:15;;;;;;;;;;;;;;;45.36;11.80;100528.22;5110072;27;19978;-69
2022/09/17 10:51:42;;;;;;;;;;;;;;;45.32;11.71;100521.94;5108666;27;19965;-68
2022/09/17 10:54:18;;;;;;;;;;;;;;;45.38;11.90;100522.75;5125405;27;19942;-70
2022/09/17 10:56:48;;;;;;;;;;;;;;;45.27;11.88;100519.84;5096998;28;19969;-69
2022/09/17 10:59:14;;;;;;;;;;;;;;;45.20;11.95;100513.22;5103864;28;19920;-70
2022/09/17 11:01:59;;;;;;;;;;;;;;;45.24;11.92;100512.97;5104659;28;19924;-69
2022/09/17 11:04:29;;;;;;;;;;;;;;;45.33;12.14;100517.78;5111372;28;20013;-70
2022/09/17 11:07:07;;;;;;;;;;;;;;;45.18;12.00;100515.81;5103926;27;19915;-69
2022/09/17 11:09:51;;;;;;;;;;;;;;;45.13;11.72;100518.66;5110769;27;19924;-69
2022/09/17 11:12:35;;;;;;;;;;;;;;;45.06;11.45;100522.75;5126063;27;19964;-70
2022/09/17 11:15:28;;;;;;;;;;;;;;;45.05;12.00;100524.06;5106205;27;20458;-69
2022/09/17 11:18:05;;;;;;;;;;;;;;;45.07;11.63;100517.84;5105003;28;19923;-68
2022/09/17 11:20:43;;;;;;;;;;;;;;;44.94;12.00;100515.38;5126553;28;19924;-68
2022/09/17 11:23:12;;;;;;;;;;;;;;;44.82;11.98;100508.72;5108229;28;20006;-68
2022/09/17 11:25:38;;;;;;;;;;;;;;;44.89;12.06;100510.41;5109513;28;19916;-69
2022/09/17 11:28:15;;;;;;;;;;;;;;;44.81;11.53;100514.97;5123716;28;19915;-67
2022/09/17 11:30:50;;;;;;;;;;;;;;;44.83;12.41;100518.13;5098993;28;19930;-67
2022/09/17 11:33:22;;;;;;;;;;;;;;;44.80;11.63;100516.28;5116678;28;19920;-69
2022/09/17 11:35:52;;;;;;;;;;;;;;;44.77;12.27;100515.22;5103790;28;19971;-69
2022/09/17 11:38:26;;;;;;;;;;;;;;;44.68;12.03;100511.72;5130528;27;19919;-67
2022/09/17 11:40:54;;;;;;;;;;;;;;;44.57;12.16;100524.69;5107619;27;19919;-67
2022/09/17 11:43:25;;;;;;;;;;;;;;;44.57;12.29;100521.81;5118278;27;19912;-68
2022/09/17 11:45:54;;;;;;;;;;;;;;;44.53;11.81;100529.84;5124288;27;19931;-68
2022/09/17 11:48:23;;;;;;;;;;;;;;;44.60;12.12;100517.91;5103495;27;19982;-69
2022/09/17 11:50:52;;;;;;;;;;;;;;;44.55;11.73;100527.25;5127471;27;19989;-68
2022/09/17 11:53:29;;;;;;;;;;;;;;;44.34;12.01;100525.69;5089564;28;19917;-68
2022/09/17 11:55:59;;;;;;;;;;;;;;;44.25;12.09;100529.50;5125152;27;19924;-68
2022/09/17 11:58:31;;;;;;;;;;;;;;;44.31;11.74;100541.03;5103134;27;19920;-69
2022/09/17 12:01:03;;;;;;;;;;;;;;;44.31;11.98;100535.28;5124879;27;19920;-68
2022/09/17 12:04:01;;;;;;;;;;;;;;;44.33;12.04;100532.72;5117974;27;19929;-70
2022/09/17 12:06:45;;;;;;;;;;;;;;;44.38;12.12;100537.75;5026797;28;20014;-70
2022/09/17 12:09:16;;;;;;;;;;;;;;;44.25;12.14;100540.19;5111673;27;20026;-70
2022/09/17 12:11:46;;;;;;;;;;;;;;;44.20;12.08;100535.19;5111647;27;20366;-68
2022/09/17 12:14:21;;;;;;;;;;;;;;;44.33;12.23;100538.44;5121500;27;20385;-69
2022/09/17 12:16:49;;;;;;;;;;;;;;;44.44;12.41;100532.06;5100452;28;20296;-69
2022/09/17 12:19:22;;;;;;;;;;;;;;;44.46;11.89;100532.34;5107497;28;19924;-69
2022/09/17 12:22:09;;;;;;;;;;;;;;;44.35;12.08;100530.16;5122562;27;19976;-69
2022/09/17 12:24:37;;;;;;;;;;;;;;;44.31;12.35;100535.28;5102725;27;19926;-69
2022/09/17 12:27:06;;;;;;;;;;;;;;;44.29;12.30;100530.06;5122637;27;19916;-71
2022/09/17 12:29:44;;;;;;;;;;;;;;;44.30;12.50;100537.38;5117670;27;20271;-68
2022/09/17 12:32:13;;;;;;;;;;;;;;;44.27;12.56;100534.75;5103587;27;19920;-69
2022/09/17 12:34:42;;;;;;;;;;;;;;;44.24;12.46;100541.47;5099210;28;19923;-69
2022/09/17 12:37:44;;;;;;;;;;;;;;;44.27;12.62;100534.75;5108209;28;19939;-69
2022/09/17 12:40:25;;;;;;;;;;;;;;;44.27;12.54;100541.25;5013463;28;19921;-68
2022/09/17 12:42:51;;;;;;;;;;;;;;;44.11;12.45;100535.31;5073904;28;19923;-69
2022/09/17 12:45:17;;;;;;;;;;;;;;;44.06;11.92;100547.47;5088654;28;20004;-69
2022/09/17 12:48:05;;;;;;;;;;;;;;;44.08;12.16;100539.19;5120607;27;19934;-69
2022/09/17 12:50:50;;;;;;;;;;;;;;;44.01;11.78;100546.13;5102410;27;19916;-68
2022/09/17 12:53:22;;;;;;;;;;;;;;;43.83;11.86;100552.16;5118427;27;19920;-69
2022/09/17 12:56:00;;;;;;;;;;;;;;;43.83;11.92;100557.88;5121965;27;19973;-70
2022/09/17 12:58:27;;;;;;;;;;;;;;;43.84;11.90;100554.50;5102057;27;19924;-69